createdAt,value
2022-10-19T00:00:49.695Z,1.00
2022-10-19T00:03:56.103Z,1.23
2022-10-19T00:07:01.205Z,1.20
2022-10-19T00:10:06.505Z,0.80
2022-10-19T00:13:11.562Z,1.00
2022-10-19T00:16:19.816Z,1.50
2022-10-19T00:19:26.047Z,1.83
2022-10-19T00:22:31.314Z,1.10
2022-10-19T00:25:37.222Z,1.25
2022-10-19T00:28:42.217Z,0.90
2022-10-19T00:31:51.915Z,0.90
2022-10-19T00:34:56.947Z,1.05
2022-10-19T00:38:02.003Z,1.20
2022-10-19T00:41:06.968Z,1.02
2022-10-19T00:44:26.744Z,1.17
2022-10-19T00:47:34.952Z,0.90
2022-10-19T00:50:40.223Z,0.95
2022-10-19T00:53:45.497Z,1.02
2022-10-19T00:56:52.265Z,1.40
2022-10-19T00:59:57.845Z,1.20
2022-10-19T01:03:06.167Z,1.10
2022-10-19T01:06:11.579Z,1.25
2022-10-19T01:09:16.761Z,1.20
2022-10-19T01:12:26.187Z,1.20
2022-10-19T01:15:36.632Z,1.48
2022-10-19T01:18:47.711Z,1.25
2022-10-19T01:21:58.457Z,1.50
2022-10-19T01:25:10.003Z,1.30
2022-10-19T01:28:21.367Z,1.00
2022-10-19T01:31:31.703Z,1.15
2022-10-19T01:34:40.138Z,1.05
2022-10-19T01:37:49.485Z,1.42
2022-10-19T01:40:59.075Z,1.63
2022-10-19T01:44:07.923Z,1.00
2022-10-19T01:47:18.230Z,1.25
2022-10-19T01:50:27.324Z,1.30
2022-10-19T01:53:33.523Z,1.20
2022-10-19T01:56:39.647Z,0.90
2022-10-19T01:59:45.148Z,1.25
2022-10-19T02:02:54.107Z,1.23
2022-10-19T02:05:59.773Z,0.90
2022-10-19T02:09:04.949Z,1.20
2022-10-19T02:12:12.450Z,1.58
2022-10-19T02:15:18.310Z,1.80
2022-10-19T02:18:28.198Z,1.63
2022-10-19T02:21:34.753Z,1.48
2022-10-19T02:24:39.939Z,1.50
2022-10-19T02:27:45.210Z,1.42
2022-10-19T02:30:50.678Z,1.33
2022-10-19T02:33:58.514Z,1.23
2022-10-19T02:37:03.448Z,1.67
2022-10-19T02:40:09.294Z,1.25
2022-10-19T02:43:15.848Z,1.40
2022-10-19T02:46:23.439Z,1.45
2022-10-19T02:49:31.908Z,1.43
2022-10-19T02:55:41.865Z,1.77
2022-10-19T02:58:46.907Z,1.67
2022-10-19T03:01:52.104Z,1.40
2022-10-19T03:04:59.859Z,1.38
2022-10-19T03:08:05.018Z,1.10
2022-10-19T03:11:10.085Z,1.40
2022-10-19T03:14:15.144Z,1.25
2022-10-19T03:17:20.174Z,1.77
2022-10-19T03:20:28.017Z,1.50
2022-10-19T03:23:32.976Z,1.37
2022-10-19T03:26:38.392Z,0.93
2022-10-19T03:29:43.660Z,1.23
2022-10-19T03:32:48.914Z,1.10
2022-10-19T03:36:15.243Z,1.58
2022-10-19T03:39:20.636Z,1.13
2022-10-19T03:42:25.547Z,1.10
2022-10-19T03:45:30.609Z,0.90
2022-10-19T03:48:36.211Z,1.30
2022-10-19T03:51:43.757Z,1.30
2022-10-19T03:54:48.953Z,1.40
2022-10-19T03:57:53.991Z,1.38
2022-10-19T04:00:59.101Z,1.50
2022-10-19T04:04:05.164Z,2.63
2022-10-19T04:07:12.862Z,1.95
2022-10-19T04:10:18.130Z,2.00
2022-10-19T04:13:23.201Z,1.80
2022-10-19T04:16:28.867Z,1.90
2022-10-19T04:19:33.803Z,2.28
2022-10-19T04:22:41.497Z,2.00
2022-10-19T04:25:46.575Z,2.30
2022-10-19T04:28:51.748Z,2.30
2022-10-19T04:31:57.106Z,2.10
2022-10-19T04:35:02.285Z,1.92
2022-10-19T04:38:10.296Z,2.30
2022-10-19T04:41:16.597Z,2.57
2022-10-19T04:44:21.556Z,3.25
2022-10-19T04:47:26.555Z,2.88
2022-10-19T04:50:31.707Z,2.70
2022-10-19T04:53:40.177Z,3.20
2022-10-19T04:56:45.351Z,3.17
2022-10-19T04:59:50.747Z,2.80
2022-10-19T05:02:55.688Z,3.72
2022-10-19T05:06:02.137Z,3.28
2022-10-19T05:09:10.029Z,2.90
2022-10-19T05:12:15.233Z,3.28
2022-10-19T05:15:20.545Z,3.20
2022-10-19T05:18:25.540Z,3.00
2022-10-19T05:21:31.604Z,2.92
2022-10-19T05:24:39.336Z,2.88
2022-10-19T05:27:44.383Z,2.63
2022-10-19T05:30:49.882Z,3.00
2022-10-19T05:33:56.466Z,3.22
2022-10-19T05:37:01.786Z,3.08
2022-10-19T05:40:10.390Z,2.58
2022-10-19T05:43:15.401Z,3.22
2022-10-19T05:46:20.554Z,3.05
2022-10-19T05:49:25.853Z,3.15
2022-10-19T05:52:31.131Z,3.63
2022-10-19T05:55:39.945Z,3.90
2022-10-19T05:58:45.002Z,3.25
2022-10-19T06:01:50.494Z,3.83
2022-10-19T06:04:55.441Z,3.63
2022-10-19T06:08:00.353Z,3.50
2022-10-19T06:11:13.021Z,3.17
2022-10-19T06:14:18.773Z,4.00
2022-10-19T06:17:24.047Z,3.58
2022-10-19T06:20:30.088Z,3.80
2022-10-19T06:23:35.551Z,4.05
2022-10-19T06:26:43.256Z,4.15
2022-10-19T06:29:48.314Z,5.37
2022-10-19T06:32:53.514Z,5.60
2022-10-19T06:35:58.820Z,6.80
2022-10-19T06:39:03.847Z,5.13
2022-10-19T06:42:12.043Z,4.80
2022-10-19T06:45:17.481Z,5.07
2022-10-19T06:48:22.488Z,4.63
2022-10-19T06:51:28.478Z,4.53
2022-10-19T06:54:33.560Z,5.32
2022-10-19T06:57:41.229Z,4.95
2022-10-19T07:00:46.520Z,4.20
2022-10-19T07:03:53.266Z,5.50
2022-10-19T07:06:58.466Z,4.35
2022-10-19T07:10:03.433Z,4.18
2022-10-19T07:13:11.335Z,4.72
2022-10-19T07:16:20.559Z,5.00
2022-10-19T07:19:29.051Z,5.03
2022-10-19T07:22:34.018Z,4.32
2022-10-19T07:25:39.302Z,5.10
2022-10-19T07:28:48.404Z,4.03
2022-10-19T07:31:54.421Z,5.22
2022-10-19T07:34:59.592Z,4.70
2022-10-19T07:38:04.498Z,5.28
2022-10-19T07:41:10.397Z,5.57
2022-10-19T07:44:18.314Z,6.10
2022-10-19T07:47:23.357Z,5.35
2022-10-19T07:50:28.744Z,5.75
2022-10-19T07:53:34.340Z,4.82
2022-10-19T07:56:39.913Z,5.78
2022-10-19T07:59:47.765Z,5.35
2022-10-19T08:03:05.051Z,5.93
2022-10-19T08:06:19.270Z,5.10
2022-10-19T08:09:50.774Z,4.93
2022-10-19T08:12:49.377Z,5.35
2022-10-19T08:15:56.976Z,5.13
2022-10-19T08:19:02.937Z,5.57
2022-10-19T08:22:08.281Z,4.78
2022-10-19T08:25:13.252Z,4.93
2022-10-19T08:28:18.350Z,5.78
2022-10-19T08:31:26.788Z,5.18
2022-10-19T08:37:50.830Z,3.65
2022-10-19T08:40:56.191Z,4.07
2022-10-19T08:44:09.345Z,3.60
2022-10-19T08:47:23.769Z,4.60
2022-10-19T08:50:30.016Z,5.30
2022-10-19T08:53:38.933Z,6.07
2022-10-19T08:56:51.905Z,5.35
2022-10-19T09:00:01.891Z,4.88
2022-10-19T09:03:23.046Z,5.13
2022-10-19T09:06:48.860Z,4.90
2022-10-19T09:09:57.800Z,4.38
2022-10-19T09:13:03.969Z,4.60
2022-10-19T09:16:09.413Z,4.80
2022-10-19T09:19:22.190Z,4.78
2022-10-19T09:22:30.425Z,5.28
2022-10-19T09:25:36.782Z,5.90
2022-10-19T09:28:46.436Z,5.78
2022-10-19T09:31:54.922Z,5.00
2022-10-19T09:35:04.313Z,5.75
2022-10-19T09:38:10.275Z,4.85
2022-10-19T09:41:18.747Z,5.05
2022-10-19T09:44:24.348Z,4.88
2022-10-19T09:47:37.458Z,5.43
2022-10-19T09:50:45.793Z,4.68
2022-10-19T09:53:53.254Z,3.90
2022-10-19T09:56:59.265Z,4.78
2022-10-19T10:00:04.250Z,4.05
2022-10-19T10:03:09.667Z,3.78
2022-10-19T10:06:19.515Z,5.07
2022-10-19T10:09:26.594Z,4.80
2022-10-19T10:12:31.845Z,4.75
2022-10-19T10:15:44.264Z,4.85
2022-10-19T10:18:54.143Z,5.25
2022-10-19T10:22:02.838Z,5.38
2022-10-19T10:25:15.354Z,5.47
2022-10-19T10:28:21.526Z,5.25
2022-10-19T10:31:27.945Z,4.65
2022-10-19T10:34:49.531Z,4.55
2022-10-19T10:38:07.028Z,4.90
2022-10-19T10:41:15.636Z,5.63
2022-10-19T10:44:22.309Z,5.28
2022-10-19T10:47:28.542Z,5.57
2022-10-19T10:50:35.593Z,5.40
2022-10-19T10:53:44.416Z,8.00
2022-10-19T10:57:04.295Z,5.70
2022-10-19T11:00:15.233Z,6.30
2022-10-19T11:06:25.858Z,6.13
2022-10-19T11:09:36.877Z,6.15
2022-10-19T11:12:44.788Z,6.07
2022-10-19T11:15:54.422Z,6.53
2022-10-19T11:19:01.732Z,6.85
2022-10-19T11:22:13.464Z,6.63
2022-10-19T11:25:26.178Z,7.07
2022-10-19T11:28:38.401Z,6.47
2022-10-19T11:31:46.979Z,6.05
2022-10-19T11:38:18.876Z,6.40
2022-10-19T11:41:33.847Z,5.50
2022-10-19T11:44:45.947Z,5.80
2022-10-19T11:48:00.043Z,6.63
2022-10-19T11:51:20.819Z,5.88
2022-10-19T11:54:34.238Z,5.57
2022-10-19T11:57:45.510Z,6.50
2022-10-19T12:00:57.687Z,5.68
2022-10-19T12:04:14.205Z,6.65
2022-10-19T12:07:26.879Z,6.38
2022-10-19T12:10:35.729Z,6.65
2022-10-19T12:13:45.001Z,6.00
2022-10-19T12:16:52.829Z,6.13
2022-10-19T12:19:59.495Z,6.27
2022-10-19T12:23:08.436Z,6.00
2022-10-19T12:29:27.597Z,6.68
2022-10-19T12:32:36.076Z,7.03
2022-10-19T12:38:59.030Z,6.45
2022-10-19T12:42:10.971Z,7.32
2022-10-19T12:45:25.407Z,7.03
2022-10-19T12:48:30.825Z,8.70
2022-10-19T12:51:47.330Z,7.30
2022-10-19T12:54:52.617Z,7.75
2022-10-19T12:58:02.471Z,6.80
2022-10-19T13:01:11.235Z,6.30
2022-10-19T13:04:17.996Z,7.25
2022-10-19T13:07:23.542Z,5.88
2022-10-19T13:10:30.417Z,5.53
2022-10-19T13:13:54.003Z,6.03
2022-10-19T13:17:03.035Z,5.63
2022-10-19T13:20:25.266Z,6.15
2022-10-19T13:23:45.534Z,5.68
2022-10-19T13:26:50.777Z,5.95
2022-10-19T13:29:55.916Z,6.15
2022-10-19T13:33:03.627Z,6.32
2022-10-19T13:36:11.698Z,5.13
2022-10-19T13:39:18.261Z,5.80
2022-10-19T13:42:26.877Z,6.22
2022-10-19T13:45:31.824Z,5.45
2022-10-19T13:48:47.775Z,5.60
2022-10-19T13:51:59.343Z,5.90
2022-10-19T13:55:18.722Z,5.85
2022-10-19T13:58:33.711Z,5.60
2022-10-19T14:01:47.172Z,5.80
2022-10-19T14:05:01.769Z,7.38
2022-10-19T14:08:13.005Z,6.55
2022-10-19T14:11:19.312Z,5.63
2022-10-19T14:14:26.090Z,5.47
2022-10-19T14:17:34.399Z,6.13
2022-10-19T14:20:42.365Z,5.40
2022-10-19T14:26:52.483Z,5.13
2022-10-19T14:29:57.654Z,5.20
2022-10-19T14:33:03.293Z,5.20
2022-10-19T14:36:17.807Z,5.15
2022-10-19T14:39:26.572Z,4.88
2022-10-19T14:42:43.171Z,4.78
2022-10-19T14:45:48.185Z,5.25
2022-10-19T14:48:53.700Z,5.35
2022-10-19T14:52:03.282Z,4.75
2022-10-19T14:55:12.648Z,5.05
2022-10-19T14:58:21.878Z,4.82
2022-10-19T15:01:27.201Z,4.68
2022-10-19T15:04:34.601Z,4.28
2022-10-19T15:07:43.506Z,4.32
2022-10-19T15:10:50.138Z,9.00
2022-10-19T15:13:59.644Z,4.70
2022-10-19T15:17:06.147Z,4.40
2022-10-19T15:20:25.241Z,4.07
2022-10-19T15:23:40.544Z,4.05
2022-10-19T15:27:06.631Z,3.40
2022-10-19T15:30:26.694Z,4.20
2022-10-19T15:33:31.713Z,4.93
2022-10-19T15:36:36.807Z,4.30
2022-10-19T15:39:45.760Z,4.05
2022-10-19T15:42:51.348Z,4.32
2022-10-19T15:46:02.765Z,3.97
2022-10-19T15:49:27.823Z,4.18
2022-10-19T15:52:33.747Z,5.47
2022-10-19T15:55:41.578Z,3.95
2022-10-19T15:58:46.708Z,4.13
2022-10-19T16:01:55.117Z,4.10
2022-10-19T16:05:01.187Z,4.13
2022-10-19T16:08:11.655Z,4.30
2022-10-19T16:11:21.396Z,4.00
2022-10-19T16:14:26.797Z,3.97
2022-10-19T16:17:32.185Z,4.47
2022-10-19T16:20:39.082Z,4.28
2022-10-19T16:23:44.248Z,3.92
2022-10-19T16:26:52.022Z,4.13
2022-10-19T16:29:57.289Z,4.75
2022-10-19T16:33:02.712Z,4.55
2022-10-19T16:36:08.569Z,5.00
2022-10-19T16:39:13.769Z,4.15
2022-10-19T16:42:22.344Z,4.15
2022-10-19T16:45:28.818Z,3.55
2022-10-19T16:48:34.414Z,4.20
2022-10-19T16:51:39.929Z,3.72
2022-10-19T16:54:44.978Z,3.80
2022-10-19T16:57:53.842Z,4.32
2022-10-19T17:01:01.678Z,3.67
2022-10-19T17:04:06.910Z,3.80
2022-10-19T17:07:13.017Z,3.03
2022-10-19T17:10:18.560Z,3.45
2022-10-19T17:13:26.387Z,4.57
2022-10-19T17:16:32.592Z,4.05
2022-10-19T17:19:37.767Z,3.55
2022-10-19T17:22:42.696Z,3.80
2022-10-19T17:25:50.971Z,3.42
2022-10-19T17:28:58.542Z,3.63
2022-10-19T17:32:03.443Z,3.20
2022-10-19T17:35:09.475Z,3.20
2022-10-19T17:38:14.521Z,3.50
2022-10-19T17:41:22.291Z,3.22
2022-10-19T17:44:30.900Z,3.17
2022-10-19T17:50:40.579Z,3.03
2022-10-19T17:53:46.556Z,2.55
2022-10-19T17:56:51.596Z,3.08
2022-10-19T17:59:59.533Z,2.60
2022-10-19T18:03:04.533Z,3.33
2022-10-19T18:06:11.847Z,3.20
2022-10-19T18:09:16.944Z,3.08
2022-10-19T18:12:22.237Z,2.92
2022-10-19T18:15:29.956Z,2.80
2022-10-19T18:18:36.533Z,2.80
2022-10-19T18:21:42.756Z,3.90
2022-10-19T18:24:47.956Z,3.35
2022-10-19T18:27:53.090Z,2.75
2022-10-19T18:31:07.072Z,3.75
2022-10-19T18:34:15.573Z,3.03
2022-10-19T18:37:20.651Z,2.70
2022-10-19T18:40:25.707Z,3.50
2022-10-19T18:43:30.697Z,3.33
2022-10-19T18:46:39.222Z,3.53
2022-10-19T18:49:44.347Z,2.90
2022-10-19T18:52:49.407Z,4.20
2022-10-19T18:56:01.308Z,3.10
2022-10-19T18:59:06.731Z,3.40
2022-10-19T19:02:22.351Z,3.90
2022-10-19T19:05:35.066Z,3.15
2022-10-19T19:08:40.541Z,3.38
2022-10-19T19:11:45.987Z,3.30
2022-10-19T19:14:50.894Z,3.45
2022-10-19T19:17:59.560Z,3.25
2022-10-19T19:24:09.946Z,4.10
2022-10-19T19:27:14.911Z,3.22
2022-10-19T19:30:19.965Z,3.22
2022-10-19T19:33:27.782Z,2.88
2022-10-19T19:36:32.846Z,2.77
2022-10-19T19:39:37.829Z,3.08
2022-10-19T19:42:42.909Z,2.97
2022-10-19T19:45:59.404Z,3.67
2022-10-19T19:49:08.580Z,2.47
2022-10-19T19:52:13.646Z,2.53
2022-10-19T19:55:18.816Z,2.47
2022-10-19T19:58:23.950Z,2.47
2022-10-19T20:01:29.277Z,2.20
2022-10-19T20:04:37.218Z,1.80
2022-10-19T20:07:42.296Z,2.03
2022-10-19T20:10:47.388Z,2.42
2022-10-19T20:13:52.713Z,1.90
2022-10-19T20:16:57.972Z,1.70
2022-10-19T20:20:05.725Z,1.70
2022-10-19T20:23:10.780Z,1.67
2022-10-19T20:26:18.153Z,1.75
2022-10-19T20:29:23.495Z,2.50
2022-10-19T20:32:28.504Z,1.80
2022-10-19T20:35:39.004Z,1.77
2022-10-19T20:38:48.015Z,1.70
2022-10-19T20:41:53.097Z,1.60
2022-10-19T20:44:58.098Z,1.67
2022-10-19T20:48:03.342Z,1.48
2022-10-19T20:51:14.966Z,1.30
2022-10-19T20:54:19.868Z,1.73
2022-10-19T20:57:25.029Z,1.50
2022-10-19T21:00:29.914Z,1.38
2022-10-19T21:03:35.007Z,1.80
2022-10-19T21:06:44.000Z,1.50
2022-10-19T21:10:04.178Z,1.48
2022-10-19T21:28:30.675Z,1.73
2022-10-19T21:43:17.495Z,1.70
2022-10-19T21:54:29.671Z,2.15
2022-10-19T22:05:23.714Z,1.83
2022-10-19T22:42:47.809Z,1.70
2022-10-19T22:53:56.448Z,1.52
2022-10-19T23:08:39.442Z,1.67
2022-10-19T23:12:18.500Z,2.00
2022-10-19T23:15:43.977Z,1.85
2022-10-19T23:26:55.402Z,1.98
2022-10-19T23:34:11.641Z,1.90
